This is the latest recevied weather packets stored in our database for station/object SV5BYP-12. If no packets are shown the sender has not sent any weather packets the latest 1 day(s).
| Time | Temp. | Humidity | Pressure | Rain* | Wind** | Luminosity | Snow |
|---|---|---|---|---|---|---|---|
| 1778103469 | 23.89° C | 37% | 1018.2 hPa | - | - | - | - |
| 1778103221 | 23.89° C | 37% | 1018.1 hPa | - | - | - | - |
| 1778102724 | 23.89° C | 36% | 1018.1 hPa | - | - | - | - |
| 1778101730 | 23.33° C | 36% | 1018 hPa | - | - | - | - |
| 1778101481 | 23.33° C | 35% | 1018.1 hPa | - | - | - | - |
| 1778100244 | 23.33° C | 36% | 1017.9 hPa | - | - | - | - |
| 1778099749 | 24.44° C | 35% | 1018 hPa | - | - | - | - |
| 1778099007 | 23.89° C | 36% | 1018 hPa | - | - | - | - |
| 1778097770 | 26.11° C | 38% | 1017.9 hPa | - | - | - | - |
| 1778075041 | 22.78° C | 36% | 1015.9 hPa | - | - | - | - |
| 1778063210 | 47.78° C | 8% | 1006.5 hPa | - | - | - | - |
| 1778062948 | 43.33° C | 10% | 1006.6 hPa | - | - | - | - |
| 1778062134 | 46.11° C | 8% | 1014.4 hPa | - | - | - | - |
| 1778061957 | 47.22° C | 8% | 1014 hPa | - | - | - | - |
| 1778061780 | 42.22° C | 10% | 1013.9 hPa | - | - | - | - |
| 1778049348 | 26.11° C | 34% | 1017.2 hPa | - | - | - | - |
| 1778048895 | 25.56° C | 37% | 1017.1 hPa | - | - | - | - |
| 1778048703 | 26.67° C | 34% | 1017.1 hPa | - | - | - | - |
| 1778047001 | 26.11° C | 39% | 1016.8 hPa | - | - | - | - |
| 1778046858 | 26.67° C | 39% | 1016.8 hPa | - | - | - | - |
| 1778046798 | 26.11° C | 40% | 1016.4 hPa | - | - | - | - |
| 1778046697 | 27.22° C | 41% | 1016.7 hPa | - | - | - | - |
| 1778046330 | 24.44° C | 41% | 1016.7 hPa | - | - | - | - |
| 1778046287 | 22.78° C | 44% | 1016.6 hPa | - | - | - | - |
* Rain since midnight (hover to see other rain measurements)
** Current wind speed in m/s (hover to see current wind gust speed)